Welcome to Des Moines Iowa Weather. I am an independent private personal weather station on the Northwest Side of Des Moines, Iowa. Just East of Windsor Heights and just West of Glendale . This site is also mobile friendly.

There are no active watches, warnings or advisories


Visit our other weather sites:

Historical Data

Weather Station Setup



Weather Underground History page Text

Daily Summary for April 1, 2017 Units:  English    Metric   Both
« Previous Day
Next Day »
Daily Weekly Monthly Yearly Custom
  High: Low: Average:
Temperature: 52.6 °F 35.2 °F 45.2 °F
Dew Point: 42.0 °F 33.0 °F 37.5 °F
Humidity: 95 % 57 % 76 %
Wind Speed: 6.0 mph 0.0 mph 0.2 mph
Wind Gust: 7.0 mph - -
Wind:- - East
Pressure: 30.27 in 30.15 in -
Precipitation: 0.00 in    
Historical Graphs
 
 
Tabular Data for April 1, 2017
Time Temperature Dew Point Pressure Wind Wind Speed Wind Gust Humidity Rainfall Rate (Hourly)
00:54 40.6 °F 36.0 °F 30.16 in Calm     83 % 0.00 in
01:04 40.3 °F 36.0 °F 30.16 in Calm     83 % 0.00 in
01:19 39.8 °F 35.0 °F 30.16 in Calm     84 % 0.00 in
01:34 39.3 °F 35.0 °F 30.17 in Calm     84 % 0.00 in
01:49 38.8 °F 35.0 °F 30.17 in Calm     85 % 0.00 in
02:04 38.3 °F 35.0 °F 30.18 in Calm     86 % 0.00 in
02:20 37.9 °F 34.0 °F 30.19 in Calm     86 % 0.00 in
02:35 37.4 °F 34.0 °F 30.18 in Calm     87 % 0.00 in
02:50 37.0 °F 34.0 °F 30.19 in Calm     87 % 0.00 in
03:05 36.5 °F 33.0 °F 30.19 in Calm     88 % 0.00 in
03:20 36.1 °F 33.0 °F 30.18 in Calm     88 % 0.00 in
03:35 36.1 °F 34.0 °F 30.16 in Calm     90 % 0.00 in
03:51 35.9 °F 34.0 °F 30.18 in Calm     91 % 0.00 in
04:05 35.7 °F 33.0 °F 30.18 in Calm     91 % 0.00 in
04:20 35.4 °F 33.0 °F 30.18 in Calm     91 % 0.00 in
04:35 35.2 °F 33.0 °F 30.19 in Calm     91 % 0.00 in
04:50 35.2 °F 33.0 °F 30.19 in Calm     92 % 0.00 in
05:05 35.3 °F 33.0 °F 30.20 in Calm     92 % 0.00 in
05:20 35.5 °F 34.0 °F 30.19 in Calm     93 % 0.00 in
05:35 35.6 °F 34.0 °F 30.21 in Calm     93 % 0.00 in
05:50 35.8 °F 34.0 °F 30.22 in Calm     93 % 0.00 in
06:05 35.9 °F 34.0 °F 30.22 in Calm     94 % 0.00 in
06:20 36.0 °F 35.0 °F 30.23 in Calm     94 % 0.00 in
06:35 36.0 °F 35.0 °F 30.24 in Calm     94 % 0.00 in
06:50 36.1 °F 35.0 °F 30.24 in Calm     94 % 0.00 in
07:05 36.1 °F 35.0 °F 30.24 in Calm     94 % 0.00 in
07:20 36.3 °F 35.0 °F 30.24 in Calm     94 % 0.00 in
07:35 36.4 °F 35.0 °F 30.24 in Calm     94 % 0.00 in
07:50 36.7 °F 35.0 °F 30.25 in Calm     95 % 0.00 in
08:05 37.5 °F 36.0 °F 30.25 in Calm     95 % 0.00 in
08:20 38.2 °F 37.0 °F 30.25 in Calm   3.0 mph 95 % 0.00 in
08:35 38.9 °F 38.0 °F 30.25 in Calm   3.0 mph 95 % 0.00 in
08:50 39.6 °F 38.0 °F 30.25 in Calm   3.0 mph 94 % 0.00 in
09:05 40.5 °F 39.0 °F 30.24 in Calm     93 % 0.00 in
09:20 41.5 °F 39.0 °F 30.25 in Calm   2.0 mph 91 % 0.00 in
09:36 42.7 °F 39.0 °F 30.25 in Calm   2.0 mph 88 % 0.00 in
09:50 43.5 °F 39.0 °F 30.25 in Calm   2.0 mph 84 % 0.00 in
10:06 44.4 °F 39.0 °F 30.25 in Calm   4.0 mph 81 % 0.00 in
10:21 45.1 °F 39.0 °F 30.26 in NE 4.0 mph 4.0 mph 79 % 0.00 in
10:36 45.9 °F 39.0 °F 30.27 in North 2.0 mph 4.0 mph 77 % 0.00 in
10:51 46.7 °F 40.0 °F 30.27 in Calm   2.0 mph 76 % 0.00 in
11:06 47.6 °F 39.0 °F 30.27 in SSE 1.0 mph 4.0 mph 73 % 0.00 in
11:21 48.4 °F 39.0 °F 30.26 in Calm   3.0 mph 70 % 0.00 in
11:36 48.9 °F 38.0 °F 30.26 in Calm   6.0 mph 66 % 0.00 in
11:51 49.0 °F 38.0 °F 30.26 in Calm     65 % 0.00 in
12:06 49.3 °F 38.0 °F 30.26 in Calm   4.0 mph 65 % 0.00 in
12:22 49.8 °F 39.0 °F 30.25 in Calm   3.0 mph 66 % 0.00 in
12:51 50.8 °F 38.0 °F 30.24 in Calm   4.0 mph 62 % 0.00 in
13:06 51.2 °F 39.0 °F 30.23 in Calm   4.0 mph 63 % 0.00 in
13:21 51.4 °F 38.0 °F 30.24 in East 1.0 mph 6.0 mph 61 % 0.00 in
13:36 51.8 °F 38.0 °F 30.24 in Calm     60 % 0.00 in
13:51 52.1 °F 38.0 °F 30.22 in Calm   3.0 mph 60 % 0.00 in
14:06 52.1 °F 38.0 °F 30.22 in SE 2.0 mph 3.0 mph 60 % 0.00 in
14:21 52.3 °F 38.0 °F 30.21 in Calm   4.0 mph 59 % 0.00 in
14:36 52.3 °F 39.0 °F 30.21 in Calm   5.0 mph 60 % 0.00 in
14:51 52.2 °F 38.0 °F 30.21 in Calm   5.0 mph 60 % 0.00 in
15:06 52.2 °F 38.0 °F 30.20 in Calm   4.0 mph 59 % 0.00 in
15:21 52.3 °F 38.0 °F 30.19 in Calm   4.0 mph 58 % 0.00 in
15:36 52.3 °F 38.0 °F 30.17 in East 6.0 mph 7.0 mph 58 % 0.00 in
15:51 52.2 °F 38.0 °F 30.18 in Calm     60 % 0.00 in
16:06 52.2 °F 38.0 °F 30.19 in Calm     60 % 0.00 in
16:21 52.3 °F 38.0 °F 30.19 in Calm   4.0 mph 58 % 0.00 in
16:36 52.5 °F 37.0 °F 30.18 in Calm     57 % 0.00 in
16:51 52.6 °F 38.0 °F 30.19 in Calm   3.0 mph 58 % 0.00 in
17:06 52.6 °F 38.0 °F 30.18 in Calm   1.0 mph 59 % 0.00 in
17:21 52.4 °F 38.0 °F 30.18 in Calm   6.0 mph 58 % 0.00 in
17:36 52.3 °F 38.0 °F 30.17 in ESE 1.0 mph 4.0 mph 59 % 0.00 in
17:52 52.3 °F 39.0 °F 30.17 in East 2.0 mph 6.0 mph 60 % 0.00 in
18:06 52.2 °F 38.0 °F 30.17 in Calm   3.0 mph 60 % 0.00 in
18:21 52.2 °F 39.0 °F 30.17 in Calm   3.0 mph 61 % 0.00 in
18:36 52.0 °F 39.0 °F 30.16 in ENE 1.0 mph 5.0 mph 61 % 0.00 in
18:51 52.0 °F 39.0 °F 30.17 in Calm   2.0 mph 61 % 0.00 in
19:06 51.8 °F 39.0 °F 30.17 in Calm   2.0 mph 63 % 0.00 in
19:21 51.6 °F 39.0 °F 30.18 in Calm     63 % 0.00 in
19:36 51.4 °F 39.0 °F 30.18 in Calm     64 % 0.00 in
19:51 51.1 °F 40.0 °F 30.18 in Calm     65 % 0.00 in
20:06 50.8 °F 40.0 °F 30.17 in Calm     67 % 0.00 in
20:21 50.5 °F 40.0 °F 30.17 in Calm     68 % 0.00 in
20:36 50.2 °F 40.0 °F 30.16 in Calm     68 % 0.00 in
20:51 49.9 °F 40.0 °F 30.16 in Calm     69 % 0.00 in
21:07 49.7 °F 40.0 °F 30.16 in Calm     70 % 0.00 in
21:22 49.5 °F 40.0 °F 30.17 in Calm     70 % 0.00 in
21:37 49.4 °F 40.0 °F 30.17 in Calm     71 % 0.00 in
21:52 49.2 °F 41.0 °F 30.17 in Calm     72 % 0.00 in
22:07 49.0 °F 41.0 °F 30.16 in Calm     73 % 0.00 in
22:23 48.8 °F 40.0 °F 30.15 in Calm     73 % 0.00 in
22:37 48.7 °F 40.0 °F 30.16 in Calm     73 % 0.00 in
22:52 48.6 °F 41.0 °F 30.16 in Calm     75 % 0.00 in
23:07 48.4 °F 41.0 °F 30.16 in Calm     76 % 0.00 in
23:22 48.2 °F 41.0 °F 30.16 in Calm     77 % 0.00 in
23:37 48.0 °F 42.0 °F 30.16 in Calm     79 % 0.00 in
23:52 47.9 °F 42.0 °F 30.16 in Calm     80 % 0.00 in
Des Moines Weather and Climate
Compliments of Weather Underground - 3 mb

Script developed by  Jim McMurry - jmcmurry@mwt.net Adapted for the template by  Wim van der Kuil - Leuven-Template.eu

You find our weather info also at:

Weather Underground

Equipment we use:

Weather-station
Davis VP2 Plus

Weather-program
Davis Weatherlink.Com

Weather-server
iMac (Retina 4K, 21.5-inch, Late 2015)

Provider
Hostmonster.com

Davis VP2 Plus

Davis Weatherlink.Com

iMac (Retina 4K, 21.5-inch, Late 2015)

Hostmonster.com